createdAt,value
2023-03-23T15:57:58.743Z,55.78
2023-03-23T16:00:12.352Z,55.90
2023-03-23T16:02:25.589Z,56.07
2023-03-23T16:04:38.352Z,56.44
2023-03-23T16:06:53.177Z,56.62
2023-03-23T16:09:06.861Z,56.74
2023-03-23T16:11:19.401Z,56.89
2023-03-23T16:13:31.938Z,57.09
2023-03-23T16:15:47.487Z,57.42
2023-03-23T16:18:00.351Z,57.70
2023-03-23T16:20:19.508Z,57.90
2023-03-23T16:22:32.045Z,58.06
2023-03-23T16:24:44.628Z,58.26
2023-03-23T16:26:57.253Z,58.53
2023-03-23T16:29:23.811Z,58.52
2023-03-23T16:31:45.422Z,58.85
2023-03-23T16:33:57.964Z,59.30
2023-03-23T16:36:12.691Z,59.23
2023-03-23T16:38:25.720Z,59.65
2023-03-23T16:40:38.385Z,59.88
2023-03-23T16:42:51.077Z,60.00
2023-03-23T16:45:03.983Z,60.38
2023-03-23T16:47:18.945Z,60.51
2023-03-23T16:49:31.430Z,60.70
2023-03-23T16:51:44.035Z,61.06
2023-03-23T16:53:56.680Z,61.08
2023-03-23T16:56:09.247Z,61.21
2023-03-23T16:58:21.862Z,61.48
2023-03-23T17:00:34.568Z,61.75
2023-03-23T17:02:49.175Z,61.78
2023-03-23T17:05:02.030Z,62.18
2023-03-23T17:07:14.889Z,62.33
2023-03-23T17:09:28.029Z,62.53
2023-03-23T17:11:40.807Z,62.61
2023-03-23T17:13:53.421Z,63.01
2023-03-23T17:16:06.914Z,63.40
2023-03-23T17:18:19.508Z,63.37
2023-03-23T17:20:32.126Z,63.58
2023-03-23T17:22:44.833Z,63.60
2023-03-23T17:24:57.981Z,63.84
2023-03-23T17:27:11.406Z,63.98
2023-03-23T17:29:23.999Z,64.00
2023-03-23T17:31:36.650Z,64.35
2023-03-23T17:33:51.630Z,64.46
2023-03-23T17:36:04.510Z,64.64
2023-03-23T17:38:17.985Z,64.92
2023-03-23T17:40:30.551Z,64.95
2023-03-23T17:42:43.132Z,65.20
2023-03-23T17:44:55.692Z,65.32
2023-03-23T17:47:08.278Z,65.74
2023-03-23T17:49:20.891Z,65.83
2023-03-23T17:51:33.368Z,65.90
2023-03-23T17:53:45.919Z,65.84
2023-03-23T17:55:58.755Z,66.31
2023-03-23T17:58:12.177Z,66.47
2023-03-23T18:00:25.043Z,66.75
2023-03-23T18:02:37.806Z,66.60
2023-03-23T18:04:50.420Z,66.59
2023-03-23T18:07:02.960Z,66.64
2023-03-23T18:09:15.588Z,66.61
2023-03-23T18:11:28.198Z,66.73
2023-03-23T18:13:40.975Z,66.69
2023-03-23T18:15:55.413Z,66.81
2023-03-23T18:18:08.070Z,67.06
2023-03-23T18:20:21.716Z,67.07
2023-03-23T18:22:34.511Z,66.95
2023-03-23T18:24:47.384Z,66.98
2023-03-23T18:27:00.232Z,67.10
2023-03-23T18:29:12.849Z,67.06
2023-03-23T18:31:25.581Z,66.98
2023-03-23T18:33:39.358Z,67.03
2023-03-23T18:35:58.559Z,66.88
2023-03-23T18:38:12.150Z,66.94
2023-03-23T18:40:25.133Z,66.90
2023-03-23T18:42:39.766Z,66.80
2023-03-23T18:44:54.815Z,66.89
2023-03-23T18:47:07.387Z,66.72
2023-03-23T18:49:20.007Z,66.66
2023-03-23T18:51:32.595Z,66.61
2023-03-23T18:53:45.201Z,66.63
2023-03-23T18:56:07.631Z,66.47
2023-03-23T18:58:21.062Z,66.50
2023-03-23T19:00:33.879Z,66.48
2023-03-23T19:02:47.155Z,66.44
2023-03-23T19:05:09.740Z,66.41
2023-03-23T19:07:22.471Z,66.36
2023-03-23T19:09:35.135Z,66.42
2023-03-23T19:11:47.839Z,66.51
2023-03-23T19:14:02.900Z,66.44
2023-03-23T19:16:16.153Z,66.19
2023-03-23T19:18:29.069Z,66.32
2023-03-23T19:21:09.292Z,66.34
2023-03-23T19:23:15.031Z,66.32
2023-03-23T19:25:27.726Z,66.13
2023-03-23T19:28:14.681Z,65.99
2023-03-23T19:30:13.140Z,66.09
2023-03-23T19:32:25.815Z,66.04
2023-03-23T19:34:39.473Z,66.02
2023-03-23T19:36:56.290Z,66.10
2023-03-23T19:39:15.650Z,66.08
2023-03-23T19:41:29.043Z,66.10
2023-03-23T19:43:43.162Z,66.21
2023-03-23T19:45:55.812Z,66.19
2023-03-23T19:48:10.113Z,66.20
2023-03-23T19:50:22.836Z,66.25
2023-03-23T19:52:35.667Z,66.25
2023-03-23T19:54:48.315Z,66.41
2023-03-23T19:57:01.177Z,66.37
2023-03-23T19:59:16.447Z,66.53
2023-03-23T20:01:29.308Z,66.39
2023-03-23T20:03:43.358Z,66.69
2023-03-23T20:06:05.640Z,66.71
2023-03-23T20:08:18.598Z,66.80
2023-03-23T20:10:34.560Z,66.75
2023-03-23T20:12:47.263Z,66.87
2023-03-23T20:14:59.796Z,67.04
2023-03-23T20:17:14.407Z,66.99
2023-03-23T20:19:28.625Z,67.14
2023-03-23T20:21:41.321Z,67.27
2023-03-23T20:23:57.081Z,67.62
2023-03-23T20:26:15.704Z,67.60
2023-03-23T20:28:28.547Z,67.63
2023-03-23T20:30:41.261Z,67.83
2023-03-23T20:32:58.066Z,67.91
2023-03-23T20:35:11.017Z,67.88
2023-03-23T20:37:24.011Z,68.03
2023-03-23T20:39:36.647Z,68.04
2023-03-23T20:41:51.268Z,68.09
2023-03-23T20:44:05.370Z,68.22
2023-03-23T20:46:18.222Z,68.27
2023-03-23T20:48:33.820Z,68.41
2023-03-23T20:50:47.179Z,68.71
2023-03-23T20:52:59.787Z,68.85
2023-03-23T20:55:12.513Z,68.94
2023-03-23T20:57:25.168Z,68.99
2023-03-23T20:59:37.748Z,69.02
2023-03-23T21:01:50.850Z,68.97
2023-03-23T21:04:03.597Z,69.34
2023-03-23T21:06:16.639Z,69.51
2023-03-23T21:08:30.510Z,69.54
2023-03-23T21:10:44.103Z,69.82
2023-03-23T21:12:57.188Z,70.19
2023-03-23T21:15:10.031Z,70.44
2023-03-23T21:17:22.692Z,70.76
2023-03-23T21:19:35.408Z,70.95
2023-03-23T21:21:56.428Z,71.14
2023-03-23T21:24:10.827Z,71.36
2023-03-23T21:26:27.321Z,71.87
2023-03-23T21:28:40.223Z,72.12
2023-03-23T21:30:54.701Z,72.44
2023-03-23T21:33:08.875Z,72.66
2023-03-23T21:35:21.797Z,72.72
2023-03-23T21:37:34.618Z,72.82
2023-03-23T21:39:47.276Z,72.99
2023-03-23T21:42:00.212Z,73.10
2023-03-23T21:44:13.414Z,73.39
2023-03-23T21:46:25.990Z,73.79
2023-03-23T21:48:38.685Z,73.99
2023-03-23T21:50:52.200Z,74.08
2023-03-23T21:53:05.700Z,74.07
2023-03-23T21:55:18.339Z,74.18
2023-03-23T21:57:31.927Z,74.40
2023-03-23T21:59:44.572Z,74.63
2023-03-23T22:01:58.256Z,74.61
2023-03-23T22:04:11.185Z,74.77
2023-03-23T22:06:26.812Z,75.08
2023-03-23T22:08:41.177Z,75.25
2023-03-23T22:11:01.848Z,75.77
2023-03-23T22:13:17.919Z,75.42
2023-03-23T22:15:30.490Z,75.40
2023-03-23T22:17:43.725Z,75.57
2023-03-23T22:19:56.302Z,75.28
2023-03-23T22:22:09.020Z,75.50
2023-03-23T22:24:21.835Z,75.65
2023-03-23T22:26:34.506Z,76.25
2023-03-23T22:28:49.380Z,77.10
2023-03-23T22:31:04.887Z,77.45
2023-03-23T22:33:17.794Z,77.88
2023-03-23T22:35:30.647Z,78.45
2023-03-23T22:37:43.214Z,78.66
2023-03-23T22:39:55.810Z,78.69
2023-03-23T22:42:08.387Z,78.85
2023-03-23T22:44:20.938Z,79.04
2023-03-23T22:46:33.486Z,79.78
2023-03-23T22:48:46.578Z,79.94
2023-03-23T22:50:59.968Z,80.04
2023-03-23T22:53:13.656Z,80.10
2023-03-23T22:55:27.094Z,80.35
2023-03-23T22:57:39.722Z,80.38
2023-03-23T22:59:52.256Z,80.65
2023-03-23T23:02:04.825Z,80.85
2023-03-23T23:04:17.608Z,80.94
2023-03-23T23:06:30.702Z,81.01
2023-03-23T23:08:44.078Z,81.07
2023-03-23T23:10:58.788Z,81.19
2023-03-23T23:13:12.965Z,81.26
2023-03-23T23:15:26.342Z,81.19
2023-03-23T23:17:38.994Z,80.94
2023-03-23T23:19:51.527Z,81.17
2023-03-23T23:22:18.025Z,80.83
2023-03-23T23:24:32.519Z,81.11
2023-03-23T23:26:45.063Z,81.06
2023-03-23T23:28:57.724Z,80.97
2023-03-23T23:31:25.916Z,80.56
2023-03-23T23:33:38.609Z,80.47
2023-03-23T23:35:51.825Z,80.27
2023-03-23T23:38:06.671Z,80.35
2023-03-23T23:40:20.254Z,80.29
2023-03-23T23:42:32.881Z,80.40
2023-03-23T23:44:46.438Z,80.64
2023-03-23T23:46:59.123Z,80.28
2023-03-23T23:49:11.646Z,80.59
2023-03-23T23:51:27.130Z,80.48
2023-03-23T23:53:42.489Z,80.39
2023-03-23T23:55:55.043Z,80.17
2023-03-23T23:58:07.708Z,80.52
